Time;durP1;ratioP1;P1;durP2;ratioP2;P2;SDS_P1;SDS_P2;PMS_P1;PMS_P2;Temp;Humidity;BMP_temperature;BMP_pressure;BME280_temperature;BME280_humidity;BME280_pressure;Samples;Min_cycle;Max_cycle;Signal;HPM_P1;HPM_P2
2022/07/31 00:00:58;;;;;;;0.50;0.45;;;24.60;60.70;;;;;;6309143;27;20043;-40
2022/07/31 00:04:00;;;;;;;0.40;0.30;;;24.70;60.80;;;;;;6332384;27;20047;-42
2022/07/31 00:07:02;;;;;;;0.30;0.30;;;24.70;60.80;;;;;;6331154;27;20050;-40
2022/07/31 00:10:05;;;;;;;0.30;0.30;;;24.60;60.80;;;;;;6333208;27;20806;-39
2022/07/31 00:13:08;;;;;;;0.40;0.30;;;24.70;60.80;;;;;;6333253;27;20043;-41
2022/07/31 00:16:11;;;;;;;0.30;0.30;;;24.70;60.90;;;;;;6333698;27;20154;-39
2022/07/31 00:19:13;;;;;;;0.25;0.25;;;24.70;60.90;;;;;;6334327;27;20047;-39
2022/07/31 00:22:14;;;;;;;0.52;0.43;;;24.60;60.90;;;;;;6332300;27;20996;-39
2022/07/31 00:25:17;;;;;;;0.70;0.50;;;24.70;61.60;;;;;;6330372;27;20129;-40
2022/07/31 00:28:20;;;;;;;0.93;0.35;;;24.60;60.90;;;;;;6332645;27;20089;-41
2022/07/31 00:31:23;;;;;;;0.40;0.30;;;24.60;61.00;;;;;;6308572;27;20035;-39
2022/07/31 00:34:24;;;;;;;0.40;0.40;;;24.60;60.90;;;;;;6331331;27;20039;-39
2022/07/31 00:37:29;;;;;;;0.30;0.30;;;24.70;61.00;;;;;;6330151;27;20059;-40
2022/07/31 00:40:31;;;;;;;0.30;0.30;;;24.60;61.00;;;;;;6330580;27;20064;-39
2022/07/31 00:43:34;;;;;;;0.30;0.30;;;24.50;60.80;;;;;;6331930;27;20047;-39
2022/07/31 00:46:36;;;;;;;0.47;0.43;;;24.60;60.80;;;;;;6332551;27;20043;-39
2022/07/31 00:49:41;;;;;;;0.30;0.30;;;24.60;60.80;;;;;;6313175;27;20586;-39
2022/07/31 00:52:43;;;;;;;0.30;0.30;;;24.70;60.70;;;;;;6332040;27;20054;-41
2022/07/31 00:55:45;;;;;;;0.40;0.40;;;24.70;60.70;;;;;;6330990;27;20091;-40
2022/07/31 00:58:57;;;;;;;0.40;0.40;;;24.70;60.70;;;;;;6330712;27;20795;-39
2022/07/31 01:01:59;;;;;;;0.47;0.47;;;24.70;60.50;;;;;;6328145;27;20135;-40
2022/07/31 01:05:01;;;;;;;0.40;0.40;;;24.70;60.50;;;;;;6332096;27;20567;-41
2022/07/31 01:08:03;;;;;;;0.40;0.30;;;24.60;60.40;;;;;;6332242;27;20154;-39
2022/07/31 01:11:10;;;;;;;0.40;0.40;;;24.70;60.40;;;;;;6330749;27;20208;-41
2022/07/31 01:14:16;;;;;;;0.60;0.40;;;24.70;60.30;;;;;;6321768;27;20055;-40
2022/07/31 01:17:20;;;;;;;0.40;0.40;;;24.70;60.30;;;;;;6317291;27;20444;-40
2022/07/31 01:20:23;;;;;;;0.40;0.40;;;24.70;60.20;;;;;;6301900;27;20070;-39
2022/07/31 01:23:44;;;;;;;0.30;0.30;;;24.80;60.20;;;;;;6320407;27;20203;-39
2022/07/31 01:27:20;;;;;;;0.40;0.40;;;24.80;60.20;;;;;;6294057;27;20131;-43
2022/07/31 01:30:28;;;;;;;0.40;0.40;;;24.70;60.10;;;;;;6318762;27;20042;-39
2022/07/31 01:33:51;;;;;;;0.60;0.30;;;24.80;60.10;;;;;;6314123;27;20261;-39
2022/07/31 01:36:59;;;;;;;0.40;0.40;;;24.90;60.10;;;;;;6322228;27;20112;-39
2022/07/31 01:40:04;;;;;;;0.50;0.50;;;24.80;60.00;;;;;;6321257;27;20054;-42
2022/07/31 01:43:10;;;;;;;0.50;0.50;;;24.80;60.00;;;;;;6318650;27;20875;-42
2022/07/31 01:46:15;;;;;;;0.47;0.47;;;24.80;59.90;;;;;;6320236;27;20051;-39
2022/07/31 01:49:18;;;;;;;0.40;0.40;;;24.80;59.80;;;;;;6318696;27;20480;-41
2022/07/31 01:52:21;;;;;;;0.40;0.40;;;24.70;59.70;;;;;;6317750;27;20039;-40
2022/07/31 01:55:25;;;;;;;0.45;0.45;;;24.80;59.70;;;;;;6318449;27;20602;-40
2022/07/31 01:58:31;;;;;;;0.45;0.40;;;24.80;59.70;;;;;;6319163;27;20055;-39
2022/07/31 02:01:39;;;;;;;0.40;0.40;;;24.90;59.70;;;;;;6316065;27;20242;-41
2022/07/31 02:04:42;;;;;;;0.50;0.50;;;24.90;59.70;;;;;;6315483;27;20043;-39
2022/07/31 02:07:45;;;;;;;0.68;0.50;;;24.80;59.50;;;;;;6318994;27;20054;-40
2022/07/31 02:10:48;;;;;;;0.50;0.50;;;24.80;59.50;;;;;;6318974;27;20128;-39
2022/07/31 02:13:52;;;;;;;0.50;0.50;;;24.90;59.50;;;;;;6319950;27;20736;-40
2022/07/31 02:16:55;;;;;;;0.60;0.60;;;24.90;59.50;;;;;;6316177;27;20711;-39
2022/07/31 02:20:10;;;;;;;0.50;0.50;;;24.90;59.40;;;;;;6314986;27;20035;-42
2022/07/31 02:23:12;;;;;;;0.57;0.55;;;24.80;59.30;;;;;;6291620;27;20137;-39
2022/07/31 02:26:16;;;;;;;0.43;0.43;;;24.90;59.30;;;;;;6320742;27;20070;-39
2022/07/31 02:29:19;;;;;;;0.43;0.43;;;24.70;59.20;;;;;;6317014;27;20381;-40
2022/07/31 02:32:25;;;;;;;0.52;0.52;;;24.80;59.20;;;;;;6315785;27;20178;-41
2022/07/31 02:35:27;;;;;;;0.50;0.50;;;24.90;59.20;;;;;;6318015;27;20337;-40
2022/07/31 02:38:29;;;;;;;0.40;0.40;;;24.90;59.10;;;;;;6317346;27;20324;-40
2022/07/31 02:41:31;;;;;;;0.50;0.50;;;24.90;59.10;;;;;;6311184;27;20455;-41
2022/07/31 02:44:33;;;;;;;0.50;0.47;;;24.90;59.10;;;;;;6314780;27;20875;-41
2022/07/31 02:47:36;;;;;;;0.50;0.50;;;24.90;59.10;;;;;;6319761;27;20054;-40
2022/07/31 02:50:42;;;;;;;0.47;0.47;;;24.80;59.00;;;;;;6321379;27;20470;-38
2022/07/31 02:53:47;;;;;;;0.40;0.40;;;24.90;59.00;;;;;;6314489;27;20050;-40
2022/07/31 02:56:50;;;;;;;0.50;0.40;;;24.90;58.90;;;;;;6318046;27;20374;-39
2022/07/31 02:59:52;;;;;;;0.40;0.40;;;25.00;59.00;;;;;;6319417;27;20086;-40
2022/07/31 03:02:56;;;;;;;0.50;0.50;;;24.80;58.80;;;;;;6318559;27;20050;-42
2022/07/31 03:05:59;;;;;;;0.52;0.52;;;24.90;58.80;;;;;;6324136;27;20368;-40
2022/07/31 03:09:01;;;;;;;0.50;0.50;;;24.90;58.80;;;;;;6302631;27;20616;-41
2022/07/31 03:12:08;;;;;;;0.40;0.40;;;24.90;58.70;;;;;;6303155;27;20057;-41
2022/07/31 03:15:13;;;;;;;0.50;0.50;;;24.90;58.70;;;;;;6324215;27;20224;-40
2022/07/31 03:18:17;;;;;;;0.40;0.40;;;24.80;59.20;;;;;;6303138;27;20294;-41
2022/07/31 03:21:20;;;;;;;0.50;0.50;;;24.90;58.70;;;;;;6322326;27;20638;-40
2022/07/31 03:24:26;;;;;;;0.52;0.47;;;24.80;58.60;;;;;;6325839;27;20501;-40
2022/07/31 03:27:27;;;;;;;0.40;0.40;;;25.00;58.60;;;;;;6321019;27;20334;-42
2022/07/31 03:30:29;;;;;;;0.60;0.60;;;24.90;58.60;;;;;;6321439;27;20471;-41
2022/07/31 03:33:32;;;;;;;0.60;0.60;;;24.90;58.60;;;;;;6320120;27;20418;-40
2022/07/31 03:36:33;;;;;;;0.60;0.50;;;24.90;58.50;;;;;;6323581;27;20047;-39
2022/07/31 03:39:35;;;;;;;0.40;0.40;;;24.90;58.50;;;;;;6321834;27;20425;-40
2022/07/31 03:42:45;;;;;;;0.38;0.38;;;24.90;58.40;;;;;;6320482;27;20054;-42
2022/07/31 03:45:47;;;;;;;0.70;0.50;;;24.80;58.40;;;;;;6320854;27;20233;-39
2022/07/31 03:48:51;;;;;;;0.45;0.45;;;24.90;58.40;;;;;;6324854;27;20976;-40
2022/07/31 03:51:52;;;;;;;0.50;0.43;;;24.90;58.40;;;;;;6322751;27;20146;-39
2022/07/31 03:54:58;;;;;;;0.45;0.43;;;24.90;58.30;;;;;;6320962;27;20074;-41
2022/07/31 03:58:01;;;;;;;0.57;0.50;;;24.90;58.30;;;;;;6301889;27;20047;-40
2022/07/31 04:01:04;;;;;;;0.60;0.60;;;24.90;58.30;;;;;;6296731;27;20908;-40
2022/07/31 04:04:14;;;;;;;0.60;0.60;;;24.90;58.30;;;;;;6320239;27;20046;-40
2022/07/31 04:07:30;;;;;;;0.50;0.50;;;24.90;58.20;;;;;;6303127;27;20043;-39
2022/07/31 04:10:32;;;;;;;0.52;0.50;;;24.90;58.20;;;;;;6322165;27;20508;-40
2022/07/31 04:13:35;;;;;;;0.60;0.47;;;24.90;58.10;;;;;;6322559;27;20070;-40
2022/07/31 04:16:37;;;;;;;0.60;0.57;;;24.80;58.10;;;;;;6321185;27;20070;-41
2022/07/31 04:19:39;;;;;;;0.52;0.52;;;24.90;58.10;;;;;;6318366;27;20870;-40
2022/07/31 04:22:41;;;;;;;0.60;0.60;;;25.00;58.10;;;;;;6317298;27;20460;-39
2022/07/31 04:25:51;;;;;;;0.60;0.50;;;24.90;58.00;;;;;;6314365;27;20055;-41
2022/07/31 04:29:07;;;;;;;0.40;0.40;;;24.90;58.10;;;;;;6315537;27;20750;-40
2022/07/31 04:32:11;;;;;;;0.57;0.50;;;24.90;58.10;;;;;;6313556;27;20372;-42
2022/07/31 04:35:21;;;;;;;0.40;0.40;;;24.90;58.00;;;;;;6314236;27;20104;-40
2022/07/31 04:38:22;;;;;;;0.40;0.40;;;24.90;58.00;;;;;;6317986;27;20863;-40
2022/07/31 04:41:24;;;;;;;0.50;0.50;;;24.90;58.00;;;;;;6313943;27;20264;-40
2022/07/31 04:44:26;;;;;;;0.60;0.50;;;24.80;57.90;;;;;;6311607;27;20374;-39
2022/07/31 04:47:33;;;;;;;0.40;0.40;;;24.90;57.90;;;;;;6317255;27;20051;-40
2022/07/31 04:50:36;;;;;;;0.68;0.68;;;24.90;57.90;;;;;;6315283;27;20706;-41
2022/07/31 04:53:37;;;;;;;0.50;0.40;;;24.90;57.90;;;;;;6314152;27;20039;-41
2022/07/31 04:56:41;;;;;;;0.75;0.68;;;24.90;57.80;;;;;;6315601;27;20207;-40
2022/07/31 04:59:42;;;;;;;0.65;0.60;;;24.90;57.90;;;;;;6318399;27;20255;-41
2022/07/31 05:03:01;;;;;;;0.40;0.40;;;24.90;57.80;;;;;;6316505;27;20875;-40
2022/07/31 05:06:12;;;;;;;0.40;0.40;;;24.90;57.80;;;;;;6317151;27;20475;-39
2022/07/31 05:09:15;;;;;;;0.50;0.50;;;24.80;57.70;;;;;;6297137;27;20038;-40
2022/07/31 05:12:21;;;;;;;0.40;0.40;;;24.80;57.70;;;;;;6298970;27;20098;-40
2022/07/31 05:15:24;;;;;;;0.60;0.57;;;24.90;57.80;;;;;;6315580;27;20203;-40
2022/07/31 05:18:26;;;;;;;0.47;0.43;;;24.90;57.70;;;;;;6317785;27;20279;-41
2022/07/31 05:21:39;;;;;;;0.50;0.50;;;24.80;57.70;;;;;;6313213;27;20162;-42
2022/07/31 05:25:07;;;;;;;0.43;0.40;;;24.90;57.80;;;;;;6316384;27;20264;-39
2022/07/31 05:28:12;;;;;;;0.85;0.60;;;24.90;57.70;;;;;;6315930;27;20158;-41
2022/07/31 05:31:16;;;;;;;0.45;0.45;;;24.90;57.70;;;;;;6315413;27;20049;-39
2022/07/31 05:34:18;;;;;;;0.50;0.50;;;24.90;57.70;;;;;;6294303;27;20688;-40
2022/07/31 05:37:20;;;;;;;0.50;0.40;;;24.90;57.70;;;;;;6314955;27;20050;-40
2022/07/31 05:40:22;;;;;;;0.70;0.50;;;24.80;57.70;;;;;;6315424;27;20315;-42
2022/07/31 05:43:43;;;;;;;0.40;0.40;;;24.80;57.70;;;;;;6313299;27;20047;-43
2022/07/31 05:46:50;;;;;;;0.50;0.50;;;24.90;57.70;;;;;;6312182;27;20325;-41
2022/07/31 05:49:52;;;;;;;0.50;0.50;;;24.80;57.60;;;;;;6314259;27;20143;-40
2022/07/31 05:52:56;;;;;;;0.50;0.50;;;24.90;57.70;;;;;;6315263;27;20314;-40
2022/07/31 05:56:10;;;;;;;0.52;0.50;;;24.90;57.60;;;;;;6315804;27;20074;-41
2022/07/31 05:59:20;;;;;;;0.70;0.55;;;24.80;57.60;;;;;;6315982;27;20058;-40
2022/07/31 06:02:22;;;;;;;0.80;0.50;;;24.90;57.60;;;;;;6313788;27;20046;-41
2022/07/31 06:05:41;;;;;;;0.60;0.43;;;24.80;57.60;;;;;;6309197;27;20179;-40
2022/07/31 06:08:43;;;;;;;0.57;0.52;;;24.90;57.60;;;;;;6287644;27;20043;-41
2022/07/31 06:11:44;;;;;;;0.77;0.60;;;24.90;57.70;;;;;;6309388;27;20157;-40
2022/07/31 06:14:47;;;;;;;0.57;0.57;;;24.80;57.60;;;;;;6310848;27;20043;-41
2022/07/31 06:17:59;;;;;;;0.60;0.50;;;24.90;57.60;;;;;;6307943;27;20046;-43
2022/07/31 06:21:03;;;;;;;0.50;0.50;;;24.80;57.50;;;;;;6308989;27;20046;-39
2022/07/31 06:24:06;;;;;;;0.30;0.30;;;25.00;57.70;;;;;;6288223;27;20430;-42
2022/07/31 06:27:16;;;;;;;0.60;0.50;;;25.00;57.70;;;;;;6308129;27;20567;-41
2022/07/31 06:30:35;;;;;;;0.50;0.43;;;24.90;57.60;;;;;;6311404;27;20871;-42
2022/07/31 06:33:37;;;;;;;0.73;0.50;;;24.90;57.60;;;;;;6308590;27;20347;-39
2022/07/31 06:36:39;;;;;;;0.60;0.52;;;24.90;57.50;;;;;;6306091;27;20035;-41
2022/07/31 06:39:47;;;;;;;0.60;0.60;;;24.90;57.50;;;;;;6282904;27;20802;-39
2022/07/31 06:43:10;;;;;;;0.50;0.50;;;24.80;57.50;;;;;;6304809;27;20962;-40
2022/07/31 06:46:31;;;;;;;;;;;25.00;57.50;;;;;;6306647;27;20477;-42
2022/07/31 06:49:54;;;;;;;0.77;0.50;;;24.80;57.40;;;;;;6305929;27;19927;-41
2022/07/31 06:52:59;;;;;;;0.60;0.40;;;24.90;57.40;;;;;;6287327;27;20063;-42
2022/07/31 06:56:01;;;;;;;0.55;0.55;;;24.90;57.50;;;;;;6303254;27;20835;-40
2022/07/31 06:59:05;;;;;;;0.57;0.57;;;24.80;57.40;;;;;;6286068;27;20079;-40
2022/07/31 07:02:10;;;;;;;0.40;0.40;;;24.80;57.40;;;;;;6277991;27;20405;-40
2022/07/31 07:05:12;;;;;;;0.50;0.50;;;25.00;57.40;;;;;;6301016;27;20404;-41
2022/07/31 07:08:13;;;;;;;0.45;0.43;;;25.00;57.40;;;;;;6303773;27;20841;-41
2022/07/31 07:11:20;;;;;;;0.70;0.60;;;25.00;57.40;;;;;;6303217;27;20622;-42
2022/07/31 07:14:22;;;;;;;0.40;0.40;;;25.00;57.40;;;;;;6304243;27;20546;-40
2022/07/31 07:17:24;;;;;;;0.45;0.45;;;25.00;57.30;;;;;;6306124;27;20387;-40
2022/07/31 07:20:33;;;;;;;0.50;0.40;;;25.10;57.40;;;;;;6305727;27;20430;-39
2022/07/31 07:23:35;;;;;;;0.85;0.40;;;25.00;57.30;;;;;;6302356;27;20372;-41
2022/07/31 07:26:52;;;;;;;0.80;0.60;;;25.00;57.20;;;;;;6304398;27;20240;-39
2022/07/31 07:29:54;;;;;;;0.60;0.60;;;25.00;57.20;;;;;;6279535;27;20070;-40
2022/07/31 07:32:59;;;;;;;0.52;0.40;;;25.20;57.30;;;;;;6300835;27;20249;-40
2022/07/31 07:36:03;;;;;;;0.40;0.40;;;25.00;57.20;;;;;;6302157;27;20047;-40
2022/07/31 07:39:04;;;;;;;0.50;0.50;;;25.10;57.20;;;;;;6301674;27;20157;-39
2022/07/31 07:42:11;;;;;;;0.43;0.43;;;25.10;57.20;;;;;;6298691;27;20434;-40
2022/07/31 07:45:15;;;;;;;0.50;0.50;;;25.10;57.20;;;;;;6300712;27;20295;-39
2022/07/31 07:48:16;;;;;;;0.40;0.40;;;25.10;57.10;;;;;;6283617;27;20243;-39
2022/07/31 07:51:37;;;;;;;;;;;24.90;57.00;;;;;;6304380;27;20075;-42
2022/07/31 07:55:19;;;;;;;0.40;0.40;;;25.10;57.20;;;;;;6292199;27;20516;-39
2022/07/31 07:58:31;;;;;;;;;;;25.00;57.00;;;;;;6302908;27;20234;-43
2022/07/31 08:01:50;;;;;;;0.52;0.32;;;25.10;57.20;;;;;;6298921;27;20502;-40
2022/07/31 08:04:59;;;;;;;0.40;0.40;;;25.00;57.10;;;;;;6303915;27;20616;-40
2022/07/31 08:08:00;;;;;;;0.63;0.50;;;25.00;57.10;;;;;;6288285;27;21081;-41
2022/07/31 08:11:21;;;;;;;;;;;25.00;57.10;;;;;;6303334;27;20119;-42
2022/07/31 08:14:32;;;;;;;0.60;0.60;;;25.10;57.20;;;;;;6303477;27;20210;-40
2022/07/31 08:17:53;;;;;;;0.30;0.30;;;25.00;57.10;;;;;;6304842;27;20058;-41
2022/07/31 08:20:56;;;;;;;0.38;0.38;;;25.10;57.20;;;;;;6305229;27;20049;-40
2022/07/31 08:23:57;;;;;;;0.55;0.52;;;25.00;57.10;;;;;;6305805;27;20063;-40
2022/07/31 08:30:17;;;;;;;0.60;0.50;;;25.00;57.10;;;;;;6289819;27;21121;-40
2022/07/31 08:33:18;;;;;;;0.50;0.50;;;25.10;57.10;;;;;;6306591;27;20074;-42
2022/07/31 08:36:27;;;;;;;0.60;0.60;;;25.10;57.10;;;;;;6306642;27;20408;-41
2022/07/31 08:39:29;;;;;;;0.50;0.50;;;25.10;57.00;;;;;;6304848;27;20042;-40
2022/07/31 08:42:39;;;;;;;0.50;0.40;;;25.10;57.00;;;;;;6303497;27;20758;-42
2022/07/31 08:45:46;;;;;;;0.55;0.55;;;25.10;57.00;;;;;;6305109;27;20043;-40
2022/07/31 08:49:00;;;;;;;0.50;0.50;;;25.10;57.00;;;;;;6303985;27;20334;-40
2022/07/31 08:52:03;;;;;;;0.43;0.43;;;25.00;56.90;;;;;;6285161;27;20484;-40
2022/07/31 08:55:22;;;;;;;0.40;0.40;;;25.10;57.00;;;;;;6307327;27;20523;-40
2022/07/31 08:58:44;;;;;;;0.57;0.57;;;25.10;56.90;;;;;;6276282;27;20332;-41
2022/07/31 09:01:46;;;;;;;0.60;0.50;;;25.00;56.80;;;;;;6308335;27;20043;-41
2022/07/31 09:04:49;;;;;;;0.50;0.40;;;25.10;56.90;;;;;;6301134;27;20275;-40
2022/07/31 09:07:55;;;;;;;0.60;0.40;;;25.10;56.80;;;;;;6295528;27;20055;-41
2022/07/31 09:11:06;;;;;;;0.50;0.50;;;25.10;56.90;;;;;;6304898;27;20511;-39
2022/07/31 09:14:12;;;;;;;0.50;0.40;;;25.10;56.90;;;;;;6286689;27;20066;-42
2022/07/31 09:17:30;;;;;;;0.40;0.40;;;25.20;56.80;;;;;;6306064;27;20410;-41
2022/07/31 09:20:32;;;;;;;0.50;0.50;;;25.10;56.80;;;;;;6305609;27;20561;-41
2022/07/31 09:23:43;;;;;;;0.47;0.47;;;25.10;56.80;;;;;;6304481;27;20237;-39
2022/07/31 09:26:45;;;;;;;;;;;25.20;56.80;;;;;;6306752;27;20543;-40
2022/07/31 09:29:48;;;;;;;;;;;25.10;56.80;;;;;;6301497;27;20151;-41
2022/07/31 09:33:20;;;;;;;0.40;0.40;;;25.10;56.70;;;;;;6284552;27;20136;-41
2022/07/31 09:36:42;;;;;;;0.40;0.40;;;25.10;56.70;;;;;;6288698;27;20201;-41
2022/07/31 09:40:05;;;;;;;0.50;0.50;;;25.20;56.80;;;;;;6303398;27;20110;-40
2022/07/31 09:43:23;;;;;;;0.50;0.50;;;25.20;56.80;;;;;;6287050;27;20050;-40
2022/07/31 09:46:26;;;;;;;0.75;0.60;;;24.60;56.50;;;;;;6306966;27;20185;-41
2022/07/31 09:49:31;;;;;;;1.05;0.63;;;25.20;56.80;;;;;;6303205;27;20288;-40
2022/07/31 09:52:33;;;;;;;0.38;0.38;;;25.20;56.80;;;;;;6285566;27;20885;-39
2022/07/31 09:55:35;;;;;;;0.40;0.38;;;25.20;56.70;;;;;;6303150;27;20604;-40
2022/07/31 09:58:37;;;;;;;0.52;0.50;;;25.30;56.80;;;;;;6306420;27;20519;-40
2022/07/31 10:01:40;;;;;;;0.70;0.70;;;25.30;56.80;;;;;;6304626;27;20485;-40
2022/07/31 10:04:43;;;;;;;0.60;0.60;;;25.10;56.60;;;;;;6301783;27;20046;-41
2022/07/31 10:07:49;;;;;;;0.50;0.50;;;25.10;56.60;;;;;;6286978;27;20418;-40
2022/07/31 10:10:56;;;;;;;0.60;0.50;;;25.10;56.60;;;;;;6303077;27;20058;-41
2022/07/31 10:14:09;;;;;;;0.57;0.57;;;25.30;56.70;;;;;;6300615;27;20915;-39
2022/07/31 10:17:12;;;;;;;0.60;0.60;;;25.30;56.70;;;;;;6265111;27;20065;-40
2022/07/31 10:20:34;;;;;;;0.50;0.50;;;25.20;56.70;;;;;;6303808;27;20477;-42
2022/07/31 10:23:44;;;;;;;0.63;0.63;;;25.30;56.70;;;;;;6282767;27;20659;-39
2022/07/31 10:26:48;;;;;;;0.50;0.50;;;25.30;56.70;;;;;;6280221;27;20130;-41
2022/07/31 10:30:04;;;;;;;0.70;0.60;;;25.10;56.60;;;;;;6301539;27;20046;-39
2022/07/31 10:33:06;;;;;;;0.75;0.60;;;25.30;56.70;;;;;;6303503;27;20504;-42
2022/07/31 10:36:53;;;;;;;0.50;0.50;;;25.20;56.60;;;;;;6289890;27;20038;-41
2022/07/31 10:40:19;;;;;;;0.60;0.60;;;25.30;56.70;;;;;;6300523;27;20738;-40
2022/07/31 10:43:35;;;;;;;0.88;0.77;;;25.30;56.70;;;;;;6301651;27;20308;-39
2022/07/31 10:46:42;;;;;;;0.80;0.77;;;25.30;56.70;;;;;;6303401;27;20138;-41
2022/07/31 10:50:02;;;;;;;0.50;0.50;;;25.30;56.70;;;;;;6304875;27;20664;-41
2022/07/31 10:53:17;;;;;;;0.77;0.77;;;25.30;56.60;;;;;;6286455;27;20894;-40
2022/07/31 10:56:41;;;;;;;0.68;0.68;;;25.20;56.60;;;;;;6288709;27;20127;-41
2022/07/31 10:59:55;;;;;;;0.63;0.63;;;25.30;56.60;;;;;;6285126;27;20059;-39
2022/07/31 11:03:13;;;;;;;0.63;0.63;;;25.30;56.60;;;;;;6301930;27;21394;-44
2022/07/31 11:06:39;;;;;;;0.75;0.75;;;25.30;56.60;;;;;;6304951;27;20062;-41
2022/07/31 11:10:10;;;;;;;0.68;0.68;;;25.30;56.50;;;;;;6277822;27;20468;-39
2022/07/31 11:13:32;;;;;;;0.60;0.60;;;25.30;56.50;;;;;;6300992;27;20079;-39
2022/07/31 11:16:50;;;;;;;0.77;0.60;;;25.30;56.50;;;;;;6298824;27;20039;-39
2022/07/31 11:20:20;;;;;;;0.80;0.80;;;25.30;56.40;;;;;;6301825;27;20829;-39
2022/07/31 11:23:29;;;;;;;0.77;0.77;;;25.20;56.20;;;;;;6281820;27;20238;-40
2022/07/31 11:26:32;;;;;;;0.68;0.68;;;25.50;56.40;;;;;;6304288;27;20276;-39
2022/07/31 11:29:43;;;;;;;0.80;0.70;;;25.40;56.30;;;;;;6305020;27;20490;-42
2022/07/31 11:33:04;;;;;;;;;;;25.30;56.20;;;;;;6309612;27;20035;-39
2022/07/31 11:36:08;;;;;;;0.75;0.65;;;25.40;56.20;;;;;;6308130;27;20070;-41
2022/07/31 11:39:11;;;;;;;0.70;0.70;;;25.40;56.10;;;;;;6290452;27;20463;-40
2022/07/31 11:42:14;;;;;;;0.63;0.63;;;25.30;56.00;;;;;;6306416;27;20412;-40
2022/07/31 11:45:17;;;;;;;0.90;0.60;;;25.30;55.90;;;;;;6303243;27;20753;-41
2022/07/31 11:48:23;;;;;;;0.57;0.57;;;25.30;55.90;;;;;;6302830;27;20030;-40
2022/07/31 11:51:29;;;;;;;0.60;0.57;;;25.30;55.80;;;;;;6284503;27;20176;-40
2022/07/31 11:54:31;;;;;;;1.05;0.70;;;25.30;55.80;;;;;;6305518;27;20155;-39
2022/07/31 11:57:33;;;;;;;0.73;0.73;;;25.40;55.80;;;;;;6307452;27;20471;-40
2022/07/31 12:00:55;;;;;;;0.80;0.70;;;25.30;55.70;;;;;;6300601;27;20352;-41
2022/07/31 12:03:58;;;;;;;0.70;0.70;;;25.30;55.60;;;;;;6305128;27;20393;-40
2022/07/31 12:07:10;;;;;;;0.70;0.70;;;25.30;55.50;;;;;;6290260;27;20074;-40
2022/07/31 12:10:12;;;;;;;0.60;0.60;;;25.30;55.50;;;;;;6302244;27;20588;-39
2022/07/31 12:13:16;;;;;;;0.75;0.75;;;25.40;55.50;;;;;;6303491;27;20285;-41
2022/07/31 12:16:18;;;;;;;0.90;0.80;;;25.40;55.50;;;;;;6305501;27;20221;-43
2022/07/31 12:19:27;;;;;;;0.70;0.70;;;25.40;55.40;;;;;;6306272;27;20311;-40
2022/07/31 12:22:29;;;;;;;0.68;0.68;;;25.40;55.40;;;;;;6305251;27;20260;-39
2022/07/31 12:25:41;;;;;;;0.60;0.60;;;25.40;55.30;;;;;;6304041;27;20074;-40
2022/07/31 12:28:43;;;;;;;0.80;0.80;;;25.30;55.20;;;;;;6284462;27;21089;-43
2022/07/31 12:31:49;;;;;;;0.80;0.80;;;25.50;55.30;;;;;;6304305;27;20297;-40
2022/07/31 12:35:01;;;;;;;0.80;0.80;;;25.30;55.10;;;;;;6279457;27;20351;-42
2022/07/31 12:38:03;;;;;;;0.60;0.60;;;25.30;55.00;;;;;;6305749;27;20095;-39
2022/07/31 12:41:25;;;;;;;0.60;0.60;;;25.40;55.00;;;;;;6270037;27;20608;-39
2022/07/31 12:44:27;;;;;;;0.60;0.60;;;25.40;54.90;;;;;;6299515;27;20368;-40
2022/07/31 12:47:31;;;;;;;0.80;0.80;;;25.50;54.90;;;;;;6304103;27;20043;-40
2022/07/31 12:50:33;;;;;;;0.77;0.77;;;25.40;54.80;;;;;;6286974;27;20205;-39
2022/07/31 12:53:34;;;;;;;0.75;0.75;;;25.40;54.80;;;;;;6297967;27;20573;-41
2022/07/31 12:56:40;;;;;;;0.80;0.80;;;25.40;54.70;;;;;;6296322;27;20145;-40
2022/07/31 12:59:42;;;;;;;0.63;0.63;;;25.40;54.60;;;;;;6266582;27;20166;-41
2022/07/31 13:02:43;;;;;;;0.73;0.65;;;25.40;54.60;;;;;;6295822;27;20150;-42
2022/07/31 13:05:45;;;;;;;0.75;0.60;;;25.30;54.40;;;;;;6299047;27;20995;-41
2022/07/31 13:08:53;;;;;;;0.82;0.75;;;25.40;54.40;;;;;;6300196;27;20053;-39
2022/07/31 13:11:55;;;;;;;0.80;0.77;;;25.40;54.30;;;;;;6296412;27;20039;-39
2022/07/31 13:15:00;;;;;;;0.68;0.60;;;25.30;54.20;;;;;;6280638;27;20476;-40
2022/07/31 13:18:03;;;;;;;0.68;0.57;;;25.30;54.00;;;;;;6298409;27;20435;-39
2022/07/31 13:21:05;;;;;;;0.68;0.68;;;25.40;54.00;;;;;;6299603;27;20144;-39
2022/07/31 13:24:08;;;;;;;0.70;0.70;;;25.30;54.50;;;;;;6296032;27;21049;-39
2022/07/31 13:27:09;;;;;;;0.90;0.77;;;25.40;53.90;;;;;;6297633;27;20043;-39
2022/07/31 13:30:13;;;;;;;0.77;0.75;;;25.30;53.90;;;;;;6295991;27;20411;-40
2022/07/31 13:33:15;;;;;;;0.65;0.60;;;25.40;53.80;;;;;;6292421;27;20569;-41
2022/07/31 13:36:16;;;;;;;1.02;0.70;;;25.40;53.80;;;;;;6275570;27;20135;-40
2022/07/31 13:39:18;;;;;;;0.75;0.55;;;25.40;53.70;;;;;;6288756;27;20101;-41
2022/07/31 13:42:19;;;;;;;0.73;0.60;;;25.30;53.70;;;;;;6293940;27;20495;-44
2022/07/31 13:45:22;;;;;;;0.60;0.60;;;25.40;53.60;;;;;;6294383;27;20458;-41
2022/07/31 13:48:24;;;;;;;0.80;0.80;;;25.40;53.50;;;;;;6294470;27;20406;-42
2022/07/31 13:51:25;;;;;;;0.93;0.73;;;25.30;53.40;;;;;;6294570;27;20046;-41
2022/07/31 13:54:30;;;;;;;0.77;0.75;;;25.40;53.40;;;;;;6293508;27;20145;-40
2022/07/31 13:57:32;;;;;;;0.70;0.70;;;25.40;53.50;;;;;;6296129;27;20171;-41
2022/07/31 14:00:34;;;;;;;0.98;0.90;;;25.50;53.50;;;;;;6292831;27;20547;-41
2022/07/31 14:03:36;;;;;;;1.00;0.90;;;25.40;53.50;;;;;;6294257;27;20468;-39
2022/07/31 14:06:37;;;;;;;0.70;0.70;;;25.30;53.40;;;;;;6294129;27;20039;-39
2022/07/31 14:09:39;;;;;;;0.70;0.70;;;25.40;53.50;;;;;;6294579;27;20162;-42
2022/07/31 14:12:55;;;;;;;0.80;0.80;;;25.30;53.40;;;;;;6292706;27;20224;-41
2022/07/31 14:16:01;;;;;;;0.70;0.70;;;25.40;53.50;;;;;;6296071;27;20046;-41
2022/07/31 14:19:03;;;;;;;1.00;0.80;;;25.30;53.50;;;;;;6293646;27;20864;-40
2022/07/31 14:22:04;;;;;;;0.80;0.70;;;25.30;53.50;;;;;;6291603;27;20560;-40
2022/07/31 14:25:12;;;;;;;0.70;0.70;;;25.40;53.60;;;;;;6293932;27;20047;-43
2022/07/31 14:28:14;;;;;;;0.98;0.85;;;25.40;53.70;;;;;;6295477;27;20403;-40
2022/07/31 14:31:16;;;;;;;0.90;0.80;;;25.40;53.70;;;;;;6293612;27;20286;-41
2022/07/31 14:34:18;;;;;;;0.60;0.60;;;25.50;53.90;;;;;;6294162;27;20071;-41
2022/07/31 14:37:19;;;;;;;0.85;0.82;;;25.30;53.70;;;;;;6293684;27;20118;-42
2022/07/31 14:40:22;;;;;;;0.80;0.80;;;25.40;53.80;;;;;;6296583;27;20790;-40
2022/07/31 14:43:23;;;;;;;0.80;0.80;;;25.40;53.80;;;;;;6294575;27;20565;-41
2022/07/31 14:46:25;;;;;;;0.65;0.65;;;25.50;54.00;;;;;;6295725;27;20757;-41
2022/07/31 14:49:27;;;;;;;0.65;0.57;;;25.40;53.90;;;;;;6296110;27;21628;-40
2022/07/31 14:52:48;;;;;;;0.80;0.80;;;25.40;53.90;;;;;;6278984;27;20086;-43
2022/07/31 14:55:50;;;;;;;0.80;0.80;;;25.40;54.00;;;;;;6296104;27;20451;-43
2022/07/31 14:58:52;;;;;;;1.08;0.98;;;25.40;54.00;;;;;;6292340;27;20348;-41
2022/07/31 15:02:00;;;;;;;0.70;0.70;;;25.40;54.10;;;;;;6295068;27;20284;-41
2022/07/31 15:05:02;;;;;;;0.80;0.77;;;25.40;54.20;;;;;;6302706;27;20050;-40
2022/07/31 15:08:23;;;;;;;0.65;0.63;;;25.30;54.20;;;;;;6273704;27;20353;-41
2022/07/31 15:11:25;;;;;;;0.73;0.68;;;25.50;54.40;;;;;;6300151;27;20051;-42
2022/07/31 15:14:46;;;;;;;;;;;25.40;54.50;;;;;;6286070;27;20209;-42
2022/07/31 15:17:48;;;;;;;0.95;0.88;;;25.40;54.50;;;;;;6298463;27;20169;-41
2022/07/31 15:20:50;;;;;;;0.80;0.80;;;25.30;54.40;;;;;;6299699;27;20165;-40
2022/07/31 15:23:51;;;;;;;0.90;0.77;;;25.50;54.80;;;;;;6295644;27;20276;-40
2022/07/31 15:26:53;;;;;;;1.10;0.93;;;25.40;54.70;;;;;;6297263;27;20199;-42
2022/07/31 15:29:55;;;;;;;0.75;0.75;;;25.40;54.80;;;;;;6302185;27;20283;-42
2022/07/31 15:33:07;;;;;;;0.80;0.68;;;25.40;54.80;;;;;;6301444;27;20129;-41
2022/07/31 15:36:09;;;;;;;0.77;0.73;;;25.40;54.80;;;;;;6315981;27;21685;-40
2022/07/31 15:39:16;;;;;;;0.70;0.65;;;25.40;54.90;;;;;;6313144;27;20337;-39
2022/07/31 15:42:17;;;;;;;0.75;0.75;;;25.40;55.00;;;;;;6312091;27;20043;-41
2022/07/31 15:45:24;;;;;;;0.80;0.80;;;25.30;54.90;;;;;;6315403;27;20174;-40
2022/07/31 15:48:26;;;;;;;0.77;0.73;;;25.50;55.10;;;;;;6314201;27;20970;-41
2022/07/31 15:51:27;;;;;;;0.85;0.82;;;25.30;55.00;;;;;;6294227;27;20046;-39
2022/07/31 15:54:29;;;;;;;0.93;0.80;;;25.30;55.00;;;;;;6311186;27;20035;-40
2022/07/31 15:57:30;;;;;;;0.80;0.77;;;25.40;55.00;;;;;;6310394;27;20362;-39
2022/07/31 16:00:32;;;;;;;0.60;0.60;;;25.40;55.10;;;;;;6298334;27;20206;-39
2022/07/31 16:03:34;;;;;;;0.80;0.80;;;25.30;55.00;;;;;;6291437;27;20039;-42
2022/07/31 16:06:52;;;;;;;0.70;0.70;;;25.50;55.20;;;;;;6299542;27;21077;-40
2022/07/31 16:09:53;;;;;;;0.70;0.70;;;25.40;55.30;;;;;;6294005;27;20292;-42
2022/07/31 16:13:15;;;;;;;;;;;25.40;55.30;;;;;;6280532;27;20086;-42
2022/07/31 16:16:16;;;;;;;0.63;0.60;;;25.40;55.30;;;;;;6297011;27;20202;-40